sensor_id;sensor_type;location;lat;lon;timestamp;P1;durP1;ratioP1;P2;durP2;ratioP2
40449;SDS011;41787;53.570;10.032;2022-09-01T00:02:00;1.40;;;0.98;;
40449;SDS011;41787;53.570;10.032;2022-09-01T00:04:30;1.02;;;0.70;;
40449;SDS011;41787;53.570;10.032;2022-09-01T00:06:56;1.02;;;0.75;;
40449;SDS011;41787;53.570;10.032;2022-09-01T00:09:23;1.17;;;0.90;;
40449;SDS011;41787;53.570;10.032;2022-09-01T00:11:51;3.13;;;0.88;;
40449;SDS011;41787;53.570;10.032;2022-09-01T00:14:18;2.17;;;0.70;;
40449;SDS011;41787;53.570;10.032;2022-09-01T00:16:44;1.63;;;0.90;;
40449;SDS011;41787;53.570;10.032;2022-09-01T00:19:10;1.40;;;0.82;;
40449;SDS011;41787;53.570;10.032;2022-09-01T00:21:38;1.23;;;0.88;;
40449;SDS011;41787;53.570;10.032;2022-09-01T00:24:04;1.65;;;0.70;;
40449;SDS011;41787;53.570;10.032;2022-09-01T00:26:30;5.65;;;2.08;;
40449;SDS011;41787;53.570;10.032;2022-09-01T00:28:56;2.97;;;0.88;;
40449;SDS011;41787;53.570;10.032;2022-09-01T00:31:22;1.88;;;0.90;;
40449;SDS011;41787;53.570;10.032;2022-09-01T00:33:48;1.25;;;0.90;;
40449;SDS011;41787;53.570;10.032;2022-09-01T00:36:15;4.03;;;1.00;;
40449;SDS011;41787;53.570;10.032;2022-09-01T00:38:41;1.48;;;0.80;;
40449;SDS011;41787;53.570;10.032;2022-09-01T00:41:07;1.67;;;1.13;;
40449;SDS011;41787;53.570;10.032;2022-09-01T00:43:44;2.45;;;0.90;;
40449;SDS011;41787;53.570;10.032;2022-09-01T00:46:11;1.77;;;0.90;;
40449;SDS011;41787;53.570;10.032;2022-09-01T00:48:38;1.80;;;1.15;;
40449;SDS011;41787;53.570;10.032;2022-09-01T00:51:04;1.23;;;0.90;;
40449;SDS011;41787;53.570;10.032;2022-09-01T00:53:31;1.98;;;0.82;;
40449;SDS011;41787;53.570;10.032;2022-09-01T00:55:57;1.85;;;0.80;;
40449;SDS011;41787;53.570;10.032;2022-09-01T00:58:23;2.30;;;0.80;;
40449;SDS011;41787;53.570;10.032;2022-09-01T01:00:51;2.47;;;0.77;;
40449;SDS011;41787;53.570;10.032;2022-09-01T01:03:18;1.48;;;0.73;;
40449;SDS011;41787;53.570;10.032;2022-09-01T01:05:48;3.83;;;0.90;;
40449;SDS011;41787;53.570;10.032;2022-09-01T01:08:19;2.40;;;0.80;;
40449;SDS011;41787;53.570;10.032;2022-09-01T01:10:45;2.03;;;0.90;;
40449;SDS011;41787;53.570;10.032;2022-09-01T01:13:13;2.22;;;0.80;;
40449;SDS011;41787;53.570;10.032;2022-09-01T01:15:40;2.90;;;0.90;;
40449;SDS011;41787;53.570;10.032;2022-09-01T01:18:17;1.60;;;0.77;;
40449;SDS011;41787;53.570;10.032;2022-09-01T01:20:43;1.35;;;0.90;;
40449;SDS011;41787;53.570;10.032;2022-09-01T01:23:30;1.05;;;0.63;;
40449;SDS011;41787;53.570;10.032;2022-09-01T01:26:01;2.47;;;0.95;;
40449;SDS011;41787;53.570;10.032;2022-09-01T01:28:31;1.88;;;0.90;;
40449;SDS011;41787;53.570;10.032;2022-09-01T01:31:01;1.50;;;0.90;;
40449;SDS011;41787;53.570;10.032;2022-09-01T01:33:34;1.92;;;0.70;;
40449;SDS011;41787;53.570;10.032;2022-09-01T01:36:05;3.05;;;0.80;;
40449;SDS011;41787;53.570;10.032;2022-09-01T01:38:32;2.17;;;0.82;;
40449;SDS011;41787;53.570;10.032;2022-09-01T01:41:00;4.75;;;1.00;;
40449;SDS011;41787;53.570;10.032;2022-09-01T01:43:26;2.08;;;1.05;;
40449;SDS011;41787;53.570;10.032;2022-09-01T01:45:53;2.13;;;0.80;;
40449;SDS011;41787;53.570;10.032;2022-09-01T01:48:20;0.82;;;0.60;;
40449;SDS011;41787;53.570;10.032;2022-09-01T01:50:48;1.98;;;0.80;;
40449;SDS011;41787;53.570;10.032;2022-09-01T01:53:15;7.22;;;0.90;;
40449;SDS011;41787;53.570;10.032;2022-09-01T01:55:43;1.83;;;0.82;;
40449;SDS011;41787;53.570;10.032;2022-09-01T01:58:09;6.97;;;0.90;;
40449;SDS011;41787;53.570;10.032;2022-09-01T02:03:08;0.70;;;0.70;;
40449;SDS011;41787;53.570;10.032;2022-09-01T02:05:36;1.45;;;0.70;;
40449;SDS011;41787;53.570;10.032;2022-09-01T02:08:05;1.95;;;0.80;;
40449;SDS011;41787;53.570;10.032;2022-09-01T02:10:33;2.97;;;1.10;;
40449;SDS011;41787;53.570;10.032;2022-09-01T02:13:00;1.98;;;1.02;;
40449;SDS011;41787;53.570;10.032;2022-09-01T02:15:31;1.90;;;0.95;;
40449;SDS011;41787;53.570;10.032;2022-09-01T02:18:07;2.15;;;0.90;;
40449;SDS011;41787;53.570;10.032;2022-09-01T02:20:33;1.08;;;0.65;;
40449;SDS011;41787;53.570;10.032;2022-09-01T02:22:59;2.05;;;0.90;;
40449;SDS011;41787;53.570;10.032;2022-09-01T02:25:39;3.42;;;0.85;;
40449;SDS011;41787;53.570;10.032;2022-09-01T02:28:08;3.30;;;1.00;;
40449;SDS011;41787;53.570;10.032;2022-09-01T02:30:36;4.43;;;1.00;;
40449;SDS011;41787;53.570;10.032;2022-09-01T02:33:05;1.17;;;0.77;;
40449;SDS011;41787;53.570;10.032;2022-09-01T02:35:33;1.13;;;0.90;;
40449;SDS011;41787;53.570;10.032;2022-09-01T02:38:00;1.55;;;0.95;;
40449;SDS011;41787;53.570;10.032;2022-09-01T02:40:27;4.25;;;0.93;;
40449;SDS011;41787;53.570;10.032;2022-09-01T02:42:57;2.83;;;0.90;;
40449;SDS011;41787;53.570;10.032;2022-09-01T02:45:24;1.13;;;0.85;;
40449;SDS011;41787;53.570;10.032;2022-09-01T02:47:50;3.95;;;0.90;;
40449;SDS011;41787;53.570;10.032;2022-09-01T02:50:18;1.90;;;0.93;;
40449;SDS011;41787;53.570;10.032;2022-09-01T02:52:44;1.90;;;1.08;;
40449;SDS011;41787;53.570;10.032;2022-09-01T02:55:12;2.80;;;0.98;;
40449;SDS011;41787;53.570;10.032;2022-09-01T02:57:38;1.23;;;0.80;;
40449;SDS011;41787;53.570;10.032;2022-09-01T03:00:06;3.08;;;1.00;;
40449;SDS011;41787;53.570;10.032;2022-09-01T03:05:10;2.10;;;1.00;;
40449;SDS011;41787;53.570;10.032;2022-09-01T03:07:36;1.27;;;0.90;;
40449;SDS011;41787;53.570;10.032;2022-09-01T03:10:02;1.15;;;0.70;;
40449;SDS011;41787;53.570;10.032;2022-09-01T03:12:33;1.63;;;1.00;;
40449;SDS011;41787;53.570;10.032;2022-09-01T03:14:59;1.95;;;1.10;;
40449;SDS011;41787;53.570;10.032;2022-09-01T03:17:25;1.38;;;0.95;;
40449;SDS011;41787;53.570;10.032;2022-09-01T03:19:51;5.13;;;0.80;;
40449;SDS011;41787;53.570;10.032;2022-09-01T03:22:18;3.05;;;1.30;;
40449;SDS011;41787;53.570;10.032;2022-09-01T03:24:46;3.80;;;1.23;;
40449;SDS011;41787;53.570;10.032;2022-09-01T03:27:11;2.55;;;1.20;;
40449;SDS011;41787;53.570;10.032;2022-09-01T03:29:37;2.78;;;1.00;;
40449;SDS011;41787;53.570;10.032;2022-09-01T03:32:03;2.30;;;0.88;;
40449;SDS011;41787;53.570;10.032;2022-09-01T03:34:29;4.15;;;1.20;;
40449;SDS011;41787;53.570;10.032;2022-09-01T03:36:58;1.50;;;0.85;;
40449;SDS011;41787;53.570;10.032;2022-09-01T03:39:26;2.47;;;1.10;;
40449;SDS011;41787;53.570;10.032;2022-09-01T03:41:52;1.45;;;1.08;;
40449;SDS011;41787;53.570;10.032;2022-09-01T03:44:19;1.65;;;0.80;;
40449;SDS011;41787;53.570;10.032;2022-09-01T03:46:45;2.00;;;1.00;;
40449;SDS011;41787;53.570;10.032;2022-09-01T03:49:11;1.75;;;1.17;;
40449;SDS011;41787;53.570;10.032;2022-09-01T03:51:40;2.40;;;1.30;;
40449;SDS011;41787;53.570;10.032;2022-09-01T03:54:07;1.45;;;1.10;;
40449;SDS011;41787;53.570;10.032;2022-09-01T03:56:33;4.60;;;1.02;;
40449;SDS011;41787;53.570;10.032;2022-09-01T03:58:59;3.70;;;1.30;;
40449;SDS011;41787;53.570;10.032;2022-09-01T04:01:26;4.22;;;1.40;;
40449;SDS011;41787;53.570;10.032;2022-09-01T04:03:52;3.55;;;1.20;;
40449;SDS011;41787;53.570;10.032;2022-09-01T04:06:18;3.58;;;1.50;;
40449;SDS011;41787;53.570;10.032;2022-09-01T04:08:47;1.25;;;1.00;;
40449;SDS011;41787;53.570;10.032;2022-09-01T04:11:14;1.70;;;1.30;;
40449;SDS011;41787;53.570;10.032;2022-09-01T04:13:42;2.17;;;1.08;;
40449;SDS011;41787;53.570;10.032;2022-09-01T04:19:05;2.25;;;1.05;;
40449;SDS011;41787;53.570;10.032;2022-09-01T04:21:43;4.25;;;1.58;;
40449;SDS011;41787;53.570;10.032;2022-09-01T04:24:09;1.85;;;1.15;;
40449;SDS011;41787;53.570;10.032;2022-09-01T04:26:38;2.92;;;1.90;;
40449;SDS011;41787;53.570;10.032;2022-09-01T04:29:05;2.17;;;1.10;;
40449;SDS011;41787;53.570;10.032;2022-09-01T04:31:33;2.13;;;1.30;;
40449;SDS011;41787;53.570;10.032;2022-09-01T04:34:01;4.60;;;1.33;;
40449;SDS011;41787;53.570;10.032;2022-09-01T04:36:37;2.38;;;1.10;;
40449;SDS011;41787;53.570;10.032;2022-09-01T04:39:05;3.85;;;1.50;;
40449;SDS011;41787;53.570;10.032;2022-09-01T04:41:34;3.55;;;1.30;;
40449;SDS011;41787;53.570;10.032;2022-09-01T04:44:00;6.93;;;1.95;;
40449;SDS011;41787;53.570;10.032;2022-09-01T04:46:29;6.00;;;1.40;;
40449;SDS011;41787;53.570;10.032;2022-09-01T04:49:05;1.90;;;1.08;;
40449;SDS011;41787;53.570;10.032;2022-09-01T04:51:38;1.45;;;1.17;;
40449;SDS011;41787;53.570;10.032;2022-09-01T04:54:04;6.32;;;1.42;;
40449;SDS011;41787;53.570;10.032;2022-09-01T04:56:36;6.35;;;1.38;;
40449;SDS011;41787;53.570;10.032;2022-09-01T04:59:03;6.82;;;2.00;;
40449;SDS011;41787;53.570;10.032;2022-09-01T05:01:31;3.65;;;1.73;;
40449;SDS011;41787;53.570;10.032;2022-09-01T05:04:07;2.40;;;1.20;;
40449;SDS011;41787;53.570;10.032;2022-09-01T05:06:33;4.78;;;1.25;;
40449;SDS011;41787;53.570;10.032;2022-09-01T05:08:59;1.73;;;1.08;;
40449;SDS011;41787;53.570;10.032;2022-09-01T05:11:25;4.00;;;1.48;;
40449;SDS011;41787;53.570;10.032;2022-09-01T05:13:51;2.13;;;1.20;;
40449;SDS011;41787;53.570;10.032;2022-09-01T05:16:21;2.60;;;1.50;;
40449;SDS011;41787;53.570;10.032;2022-09-01T05:18:47;2.45;;;1.35;;
40449;SDS011;41787;53.570;10.032;2022-09-01T05:21:15;2.58;;;1.40;;
40449;SDS011;41787;53.570;10.032;2022-09-01T05:23:42;5.57;;;1.60;;
40449;SDS011;41787;53.570;10.032;2022-09-01T05:26:12;2.17;;;1.30;;
40449;SDS011;41787;53.570;10.032;2022-09-01T05:28:41;4.85;;;1.40;;
40449;SDS011;41787;53.570;10.032;2022-09-01T05:31:07;9.75;;;1.73;;
40449;SDS011;41787;53.570;10.032;2022-09-01T05:33:34;5.82;;;1.50;;
40449;SDS011;41787;53.570;10.032;2022-09-01T05:36:01;2.80;;;1.33;;
40449;SDS011;41787;53.570;10.032;2022-09-01T05:38:32;2.25;;;1.35;;
40449;SDS011;41787;53.570;10.032;2022-09-01T05:41:02;3.70;;;1.45;;
40449;SDS011;41787;53.570;10.032;2022-09-01T05:43:32;9.82;;;1.85;;
40449;SDS011;41787;53.570;10.032;2022-09-01T05:46:00;2.35;;;1.48;;
40449;SDS011;41787;53.570;10.032;2022-09-01T05:48:28;3.30;;;1.73;;
40449;SDS011;41787;53.570;10.032;2022-09-01T05:50:55;3.88;;;1.80;;
40449;SDS011;41787;53.570;10.032;2022-09-01T05:53:25;3.30;;;1.48;;
40449;SDS011;41787;53.570;10.032;2022-09-01T05:55:54;5.25;;;1.33;;
40449;SDS011;41787;53.570;10.032;2022-09-01T05:58:22;3.03;;;1.23;;
40449;SDS011;41787;53.570;10.032;2022-09-01T06:00:50;3.22;;;1.63;;
40449;SDS011;41787;53.570;10.032;2022-09-01T06:03:17;3.15;;;1.50;;
40449;SDS011;41787;53.570;10.032;2022-09-01T06:05:43;3.25;;;1.58;;
40449;SDS011;41787;53.570;10.032;2022-09-01T06:08:16;4.03;;;1.30;;
40449;SDS011;41787;53.570;10.032;2022-09-01T06:10:42;2.20;;;1.45;;
40449;SDS011;41787;53.570;10.032;2022-09-01T06:13:09;2.90;;;1.40;;
40449;SDS011;41787;53.570;10.032;2022-09-01T06:15:36;6.78;;;1.50;;
40449;SDS011;41787;53.570;10.032;2022-09-01T06:18:05;1.33;;;1.10;;
40449;SDS011;41787;53.570;10.032;2022-09-01T06:20:31;4.30;;;1.40;;
40449;SDS011;41787;53.570;10.032;2022-09-01T06:22:58;3.97;;;1.45;;
40449;SDS011;41787;53.570;10.032;2022-09-01T06:25:24;3.05;;;1.20;;
40449;SDS011;41787;53.570;10.032;2022-09-01T06:27:54;3.15;;;1.38;;
40449;SDS011;41787;53.570;10.032;2022-09-01T06:30:20;4.85;;;1.17;;
40449;SDS011;41787;53.570;10.032;2022-09-01T06:32:50;6.55;;;1.27;;
40449;SDS011;41787;53.570;10.032;2022-09-01T06:35:16;6.18;;;1.50;;
40449;SDS011;41787;53.570;10.032;2022-09-01T06:37:42;3.38;;;1.08;;
40449;SDS011;41787;53.570;10.032;2022-09-01T06:40:10;4.43;;;1.17;;
40449;SDS011;41787;53.570;10.032;2022-09-01T06:42:45;5.32;;;1.20;;
40449;SDS011;41787;53.570;10.032;2022-09-01T06:45:15;3.67;;;0.98;;
40449;SDS011;41787;53.570;10.032;2022-09-01T06:47:41;4.47;;;2.00;;
40449;SDS011;41787;53.570;10.032;2022-09-01T06:50:09;7.85;;;1.20;;
40449;SDS011;41787;53.570;10.032;2022-09-01T06:52:35;6.45;;;1.80;;
40449;SDS011;41787;53.570;10.032;2022-09-01T06:55:04;6.50;;;1.40;;
40449;SDS011;41787;53.570;10.032;2022-09-01T06:57:30;10.32;;;1.45;;
40449;SDS011;41787;53.570;10.032;2022-09-01T06:59:56;3.97;;;0.88;;
40449;SDS011;41787;53.570;10.032;2022-09-01T07:02:22;3.05;;;0.73;;
40449;SDS011;41787;53.570;10.032;2022-09-01T07:04:48;3.72;;;0.80;;
40449;SDS011;41787;53.570;10.032;2022-09-01T07:07:15;10.82;;;1.60;;
40449;SDS011;41787;53.570;10.032;2022-09-01T07:09:41;9.32;;;1.15;;
40449;SDS011;41787;53.570;10.032;2022-09-01T07:12:07;2.38;;;0.60;;
40449;SDS011;41787;53.570;10.032;2022-09-01T07:14:34;1.90;;;0.80;;
40449;SDS011;41787;53.570;10.032;2022-09-01T07:17:00;5.80;;;1.10;;
40449;SDS011;41787;53.570;10.032;2022-09-01T07:19:26;3.65;;;0.90;;
40449;SDS011;41787;53.570;10.032;2022-09-01T07:21:52;10.10;;;0.90;;
40449;SDS011;41787;53.570;10.032;2022-09-01T07:27:25;1.85;;;0.68;;
40449;SDS011;41787;53.570;10.032;2022-09-01T07:29:54;5.68;;;0.70;;
40449;SDS011;41787;53.570;10.032;2022-09-01T07:32:21;0.82;;;0.55;;
40449;SDS011;41787;53.570;10.032;2022-09-01T07:34:47;0.65;;;0.47;;
40449;SDS011;41787;53.570;10.032;2022-09-01T07:37:13;4.63;;;0.50;;
40449;SDS011;41787;53.570;10.032;2022-09-01T07:39:41;4.25;;;0.70;;
40449;SDS011;41787;53.570;10.032;2022-09-01T07:42:10;0.50;;;0.38;;
40449;SDS011;41787;53.570;10.032;2022-09-01T07:44:36;0.75;;;0.52;;
40449;SDS011;41787;53.570;10.032;2022-09-01T07:47:04;2.58;;;0.70;;
40449;SDS011;41787;53.570;10.032;2022-09-01T07:49:33;3.28;;;0.35;;
40449;SDS011;41787;53.570;10.032;2022-09-01T07:52:01;1.40;;;0.60;;
40449;SDS011;41787;53.570;10.032;2022-09-01T07:54:28;0.55;;;0.22;;
40449;SDS011;41787;53.570;10.032;2022-09-01T07:56:54;6.05;;;0.50;;
40449;SDS011;41787;53.570;10.032;2022-09-01T07:59:20;1.98;;;0.60;;
40449;SDS011;41787;53.570;10.032;2022-09-01T08:01:46;1.25;;;0.50;;
40449;SDS011;41787;53.570;10.032;2022-09-01T08:04:13;0.80;;;0.40;;
40449;SDS011;41787;53.570;10.032;2022-09-01T08:06:40;1.95;;;0.38;;
40449;SDS011;41787;53.570;10.032;2022-09-01T08:09:06;1.20;;;0.35;;
40449;SDS011;41787;53.570;10.032;2022-09-01T08:11:32;1.48;;;0.50;;
40449;SDS011;41787;53.570;10.032;2022-09-01T08:13:58;3.30;;;0.40;;
40449;SDS011;41787;53.570;10.032;2022-09-01T08:16:25;0.57;;;0.30;;
40449;SDS011;41787;53.570;10.032;2022-09-01T08:18:51;2.13;;;0.50;;
40449;SDS011;41787;53.570;10.032;2022-09-01T08:21:18;4.35;;;0.40;;
40449;SDS011;41787;53.570;10.032;2022-09-01T08:23:46;1.08;;;0.60;;
40449;SDS011;41787;53.570;10.032;2022-09-01T08:26:13;0.50;;;0.20;;
40449;SDS011;41787;53.570;10.032;2022-09-01T08:28:39;6.07;;;0.40;;
40449;SDS011;41787;53.570;10.032;2022-09-01T08:31:09;0.98;;;0.35;;
40449;SDS011;41787;53.570;10.032;2022-09-01T08:33:36;2.78;;;0.50;;
40449;SDS011;41787;53.570;10.032;2022-09-01T08:36:02;1.38;;;0.30;;
40449;SDS011;41787;53.570;10.032;2022-09-01T08:38:28;0.55;;;0.40;;
40449;SDS011;41787;53.570;10.032;2022-09-01T08:40:55;0.55;;;0.40;;
40449;SDS011;41787;53.570;10.032;2022-09-01T08:43:34;2.33;;;0.40;;
40449;SDS011;41787;53.570;10.032;2022-09-01T08:46:09;0.40;;;0.25;;
40449;SDS011;41787;53.570;10.032;2022-09-01T08:48:42;2.80;;;0.40;;
40449;SDS011;41787;53.570;10.032;2022-09-01T08:53:46;1.30;;;0.40;;
40449;SDS011;41787;53.570;10.032;2022-09-01T08:56:14;2.13;;;0.50;;
40449;SDS011;41787;53.570;10.032;2022-09-01T08:58:41;0.85;;;0.20;;
40449;SDS011;41787;53.570;10.032;2022-09-01T09:01:19;2.05;;;0.30;;
40449;SDS011;41787;53.570;10.032;2022-09-01T09:06:38;3.33;;;0.40;;
40449;SDS011;41787;53.570;10.032;2022-09-01T09:09:08;1.17;;;0.40;;
40449;SDS011;41787;53.570;10.032;2022-09-01T09:16:48;1.80;;;0.50;;
40449;SDS011;41787;53.570;10.032;2022-09-01T09:21:47;1.67;;;0.28;;
40449;SDS011;41787;53.570;10.032;2022-09-01T09:27:15;4.78;;;0.20;;
40449;SDS011;41787;53.570;10.032;2022-09-01T09:29:41;2.17;;;0.40;;
40449;SDS011;41787;53.570;10.032;2022-09-01T09:32:08;0.75;;;0.32;;
40449;SDS011;41787;53.570;10.032;2022-09-01T09:34:35;3.03;;;1.27;;
40449;SDS011;41787;53.570;10.032;2022-09-01T09:42:33;0.73;;;0.40;;
40449;SDS011;41787;53.570;10.032;2022-09-01T09:45:03;1.98;;;0.28;;
40449;SDS011;41787;53.570;10.032;2022-09-01T09:47:37;3.15;;;0.50;;
40449;SDS011;41787;53.570;10.032;2022-09-01T09:52:36;0.68;;;0.40;;
40449;SDS011;41787;53.570;10.032;2022-09-01T09:55:03;1.17;;;0.28;;
40449;SDS011;41787;53.570;10.032;2022-09-01T09:57:30;1.23;;;0.20;;
40449;SDS011;41787;53.570;10.032;2022-09-01T10:00:06;1.00;;;0.40;;
40449;SDS011;41787;53.570;10.032;2022-09-01T10:02:34;0.93;;;0.45;;
40449;SDS011;41787;53.570;10.032;2022-09-01T10:05:21;0.52;;;0.40;;
40449;SDS011;41787;53.570;10.032;2022-09-01T10:07:50;0.93;;;0.22;;
40449;SDS011;41787;53.570;10.032;2022-09-01T10:10:30;0.35;;;0.20;;
40449;SDS011;41787;53.570;10.032;2022-09-01T10:12:56;0.82;;;0.43;;
40449;SDS011;41787;53.570;10.032;2022-09-01T10:15:27;1.20;;;0.60;;
40449;SDS011;41787;53.570;10.032;2022-09-01T10:17:54;0.75;;;0.30;;
40449;SDS011;41787;53.570;10.032;2022-09-01T10:20:23;1.38;;;0.40;;
40449;SDS011;41787;53.570;10.032;2022-09-01T10:22:50;0.80;;;0.20;;
40449;SDS011;41787;53.570;10.032;2022-09-01T10:25:17;0.35;;;0.15;;
40449;SDS011;41787;53.570;10.032;2022-09-01T10:27:46;3.65;;;0.38;;
40449;SDS011;41787;53.570;10.032;2022-09-01T10:30:14;0.43;;;0.30;;
40449;SDS011;41787;53.570;10.032;2022-09-01T10:32:41;1.27;;;0.30;;
40449;SDS011;41787;53.570;10.032;2022-09-01T10:35:29;2.55;;;0.40;;
40449;SDS011;41787;53.570;10.032;2022-09-01T10:37:54;1.92;;;0.40;;
40449;SDS011;41787;53.570;10.032;2022-09-01T10:42:53;3.40;;;0.30;;
40449;SDS011;41787;53.570;10.032;2022-09-01T10:45:30;5.50;;;0.28;;
40449;SDS011;41787;53.570;10.032;2022-09-01T10:50:43;0.47;;;0.40;;
40449;SDS011;41787;53.570;10.032;2022-09-01T10:53:16;0.73;;;0.30;;
40449;SDS011;41787;53.570;10.032;2022-09-01T11:01:13;0.57;;;0.40;;
40449;SDS011;41787;53.570;10.032;2022-09-01T11:06:12;0.30;;;0.30;;
40449;SDS011;41787;53.570;10.032;2022-09-01T11:08:57;0.82;;;0.32;;
40449;SDS011;41787;53.570;10.032;2022-09-01T11:11:30;0.63;;;0.22;;
40449;SDS011;41787;53.570;10.032;2022-09-01T11:14:01;1.05;;;0.40;;
40449;SDS011;41787;53.570;10.032;2022-09-01T11:19:34;1.65;;;0.30;;
40449;SDS011;41787;53.570;10.032;2022-09-01T11:22:02;0.22;;;0.22;;
40449;SDS011;41787;53.570;10.032;2022-09-01T11:27:04;1.15;;;0.50;;
40449;SDS011;41787;53.570;10.032;2022-09-01T11:32:15;0.50;;;0.30;;
40449;SDS011;41787;53.570;10.032;2022-09-01T11:34:41;1.55;;;0.45;;
40449;SDS011;41787;53.570;10.032;2022-09-01T11:37:13;0.35;;;0.35;;
40449;SDS011;41787;53.570;10.032;2022-09-01T11:39:41;0.93;;;0.40;;
40449;SDS011;41787;53.570;10.032;2022-09-01T11:44:48;3.03;;;0.20;;
40449;SDS011;41787;53.570;10.032;2022-09-01T11:47:15;2.53;;;0.30;;
40449;SDS011;41787;53.570;10.032;2022-09-01T11:49:49;0.60;;;0.40;;
40449;SDS011;41787;53.570;10.032;2022-09-01T11:52:17;2.47;;;0.45;;
40449;SDS011;41787;53.570;10.032;2022-09-01T11:54:44;0.80;;;0.30;;
40449;SDS011;41787;53.570;10.032;2022-09-01T11:59:42;0.73;;;0.30;;
40449;SDS011;41787;53.570;10.032;2022-09-01T12:02:09;4.60;;;0.40;;
40449;SDS011;41787;53.570;10.032;2022-09-01T12:04:41;1.40;;;0.30;;
40449;SDS011;41787;53.570;10.032;2022-09-01T12:07:10;0.88;;;0.20;;
40449;SDS011;41787;53.570;10.032;2022-09-01T12:09:40;2.28;;;0.30;;
40449;SDS011;41787;53.570;10.032;2022-09-01T12:12:07;0.90;;;0.38;;
40449;SDS011;41787;53.570;10.032;2022-09-01T12:15:01;6.18;;;0.40;;
40449;SDS011;41787;53.570;10.032;2022-09-01T12:17:27;1.73;;;0.30;;
40449;SDS011;41787;53.570;10.032;2022-09-01T12:19:53;2.15;;;0.30;;
40449;SDS011;41787;53.570;10.032;2022-09-01T12:22:20;0.85;;;0.28;;
40449;SDS011;41787;53.570;10.032;2022-09-01T12:24:47;2.35;;;0.40;;
40449;SDS011;41787;53.570;10.032;2022-09-01T12:27:14;0.80;;;0.52;;
40449;SDS011;41787;53.570;10.032;2022-09-01T12:29:40;0.82;;;0.40;;
40449;SDS011;41787;53.570;10.032;2022-09-01T12:32:07;1.08;;;0.40;;
40449;SDS011;41787;53.570;10.032;2022-09-01T12:39:32;0.40;;;0.33;;
40449;SDS011;41787;53.570;10.032;2022-09-01T12:44:41;0.50;;;0.30;;
40449;SDS011;41787;53.570;10.032;2022-09-01T12:47:08;2.55;;;0.40;;
40449;SDS011;41787;53.570;10.032;2022-09-01T12:49:41;0.32;;;0.20;;
40449;SDS011;41787;53.570;10.032;2022-09-01T12:52:19;1.10;;;0.40;;
40449;SDS011;41787;53.570;10.032;2022-09-01T12:54:49;0.98;;;0.32;;
40449;SDS011;41787;53.570;10.032;2022-09-01T12:57:23;3.50;;;0.32;;
40449;SDS011;41787;53.570;10.032;2022-09-01T13:00:12;1.92;;;0.40;;
40449;SDS011;41787;53.570;10.032;2022-09-01T13:02:40;5.00;;;0.57;;
40449;SDS011;41787;53.570;10.032;2022-09-01T13:06:07;0.90;;;0.30;;
40449;SDS011;41787;53.570;10.032;2022-09-01T13:08:05;3.72;;;0.30;;
40449;SDS011;41787;53.570;10.032;2022-09-01T13:10:34;0.45;;;0.30;;
40449;SDS011;41787;53.570;10.032;2022-09-01T13:13:02;3.50;;;0.35;;
40449;SDS011;41787;53.570;10.032;2022-09-01T13:15:28;0.52;;;0.20;;
40449;SDS011;41787;53.570;10.032;2022-09-01T13:17:55;1.80;;;0.30;;
40449;SDS011;41787;53.570;10.032;2022-09-01T13:20:21;2.05;;;0.40;;
40449;SDS011;41787;53.570;10.032;2022-09-01T13:22:47;1.00;;;0.45;;
40449;SDS011;41787;53.570;10.032;2022-09-01T13:25:14;2.15;;;0.47;;
40449;SDS011;41787;53.570;10.032;2022-09-01T13:27:41;1.75;;;0.40;;
40449;SDS011;41787;53.570;10.032;2022-09-01T13:30:08;2.70;;;0.40;;
40449;SDS011;41787;53.570;10.032;2022-09-01T13:32:35;0.90;;;0.35;;
40449;SDS011;41787;53.570;10.032;2022-09-01T13:35:01;0.25;;;0.20;;
40449;SDS011;41787;53.570;10.032;2022-09-01T13:37:27;0.35;;;0.32;;
40449;SDS011;41787;53.570;10.032;2022-09-01T13:39:53;0.45;;;0.40;;
40449;SDS011;41787;53.570;10.032;2022-09-01T13:42:19;1.63;;;0.65;;
40449;SDS011;41787;53.570;10.032;2022-09-01T13:44:45;0.25;;;0.25;;
40449;SDS011;41787;53.570;10.032;2022-09-01T13:47:11;0.63;;;0.20;;
40449;SDS011;41787;53.570;10.032;2022-09-01T13:49:37;1.77;;;0.28;;
40449;SDS011;41787;53.570;10.032;2022-09-01T13:52:03;3.33;;;0.30;;
40449;SDS011;41787;53.570;10.032;2022-09-01T13:54:29;4.85;;;0.38;;
40449;SDS011;41787;53.570;10.032;2022-09-01T13:56:55;1.85;;;0.30;;
40449;SDS011;41787;53.570;10.032;2022-09-01T13:59:21;0.35;;;0.20;;
40449;SDS011;41787;53.570;10.032;2022-09-01T14:01:47;0.47;;;0.20;;
40449;SDS011;41787;53.570;10.032;2022-09-01T14:04:14;1.35;;;0.30;;
40449;SDS011;41787;53.570;10.032;2022-09-01T14:06:40;0.35;;;0.20;;
40449;SDS011;41787;53.570;10.032;2022-09-01T14:09:08;1.90;;;0.40;;
40449;SDS011;41787;53.570;10.032;2022-09-01T14:11:34;2.17;;;0.45;;
40449;SDS011;41787;53.570;10.032;2022-09-01T14:14:00;1.20;;;0.50;;
40449;SDS011;41787;53.570;10.032;2022-09-01T14:16:26;0.38;;;0.30;;
40449;SDS011;41787;53.570;10.032;2022-09-01T14:18:52;1.63;;;0.70;;
40449;SDS011;41787;53.570;10.032;2022-09-01T14:21:18;1.58;;;0.50;;
40449;SDS011;41787;53.570;10.032;2022-09-01T14:23:44;1.50;;;0.40;;
40449;SDS011;41787;53.570;10.032;2022-09-01T14:26:15;2.92;;;0.50;;
40449;SDS011;41787;53.570;10.032;2022-09-01T14:28:41;3.42;;;0.70;;
40449;SDS011;41787;53.570;10.032;2022-09-01T14:31:12;1.88;;;0.30;;
40449;SDS011;41787;53.570;10.032;2022-09-01T14:33:39;0.55;;;0.38;;
40449;SDS011;41787;53.570;10.032;2022-09-01T14:36:05;2.05;;;0.32;;
40449;SDS011;41787;53.570;10.032;2022-09-01T14:38:31;2.60;;;0.45;;
40449;SDS011;41787;53.570;10.032;2022-09-01T14:40:58;0.70;;;0.60;;
40449;SDS011;41787;53.570;10.032;2022-09-01T14:43:24;1.90;;;0.40;;
40449;SDS011;41787;53.570;10.032;2022-09-01T14:46:00;1.33;;;0.60;;
40449;SDS011;41787;53.570;10.032;2022-09-01T14:48:26;1.20;;;0.40;;
40449;SDS011;41787;53.570;10.032;2022-09-01T14:50:52;0.63;;;0.32;;
40449;SDS011;41787;53.570;10.032;2022-09-01T14:53:18;1.23;;;0.32;;
40449;SDS011;41787;53.570;10.032;2022-09-01T14:55:44;1.13;;;0.30;;
40449;SDS011;41787;53.570;10.032;2022-09-01T14:58:10;0.70;;;0.28;;
40449;SDS011;41787;53.570;10.032;2022-09-01T15:00:37;2.50;;;0.55;;
40449;SDS011;41787;53.570;10.032;2022-09-01T15:03:05;2.33;;;0.22;;
40449;SDS011;41787;53.570;10.032;2022-09-01T15:05:34;0.57;;;0.40;;
40449;SDS011;41787;53.570;10.032;2022-09-01T15:08:00;0.30;;;0.20;;
40449;SDS011;41787;53.570;10.032;2022-09-01T15:10:26;7.15;;;0.47;;
40449;SDS011;41787;53.570;10.032;2022-09-01T15:12:53;0.90;;;0.47;;
40449;SDS011;41787;53.570;10.032;2022-09-01T15:15:20;1.30;;;0.50;;
40449;SDS011;41787;53.570;10.032;2022-09-01T15:17:46;2.40;;;0.30;;
40449;SDS011;41787;53.570;10.032;2022-09-01T15:20:12;4.78;;;0.50;;
40449;SDS011;41787;53.570;10.032;2022-09-01T15:22:56;1.48;;;0.47;;
40449;SDS011;41787;53.570;10.032;2022-09-01T15:25:23;3.50;;;0.30;;
40449;SDS011;41787;53.570;10.032;2022-09-01T15:27:49;1.30;;;0.50;;
40449;SDS011;41787;53.570;10.032;2022-09-01T15:30:15;1.25;;;0.70;;
40449;SDS011;41787;53.570;10.032;2022-09-01T15:32:45;1.17;;;0.47;;
40449;SDS011;41787;53.570;10.032;2022-09-01T15:35:12;2.65;;;0.45;;
40449;SDS011;41787;53.570;10.032;2022-09-01T15:37:38;4.47;;;0.60;;
40449;SDS011;41787;53.570;10.032;2022-09-01T15:40:05;0.77;;;0.50;;
40449;SDS011;41787;53.570;10.032;2022-09-01T15:42:32;5.72;;;0.50;;
40449;SDS011;41787;53.570;10.032;2022-09-01T15:44:59;0.28;;;0.28;;
40449;SDS011;41787;53.570;10.032;2022-09-01T15:47:25;1.52;;;0.25;;
40449;SDS011;41787;53.570;10.032;2022-09-01T15:56:14;0.35;;;0.30;;